sensor_id;sensor_type;location;lat;lon;timestamp;P1;durP1;ratioP1;P2;durP2;ratioP2
70406;SDS011;57821;52.202;0.154;2023-02-18T00:01:07;5.47;;;2.95;;
70406;SDS011;57821;52.202;0.154;2023-02-18T00:03:35;4.40;;;2.75;;
70406;SDS011;57821;52.202;0.154;2023-02-18T00:06:09;4.50;;;2.75;;
70406;SDS011;57821;52.202;0.154;2023-02-18T00:08:40;7.28;;;2.85;;
70406;SDS011;57821;52.202;0.154;2023-02-18T00:11:07;5.43;;;3.10;;
70406;SDS011;57821;52.202;0.154;2023-02-18T00:13:34;5.25;;;3.28;;
70406;SDS011;57821;52.202;0.154;2023-02-18T00:16:02;5.18;;;2.78;;
70406;SDS011;57821;52.202;0.154;2023-02-18T00:18:31;5.45;;;2.78;;
70406;SDS011;57821;52.202;0.154;2023-02-18T00:20:58;5.63;;;3.40;;
70406;SDS011;57821;52.202;0.154;2023-02-18T00:23:25;4.63;;;2.58;;
70406;SDS011;57821;52.202;0.154;2023-02-18T00:28:48;5.05;;;2.85;;
70406;SDS011;57821;52.202;0.154;2023-02-18T00:31:16;4.45;;;2.47;;
70406;SDS011;57821;52.202;0.154;2023-02-18T00:33:45;4.93;;;2.42;;
70406;SDS011;57821;52.202;0.154;2023-02-18T00:36:13;4.10;;;2.33;;
70406;SDS011;57821;52.202;0.154;2023-02-18T00:38:45;4.72;;;2.58;;
70406;SDS011;57821;52.202;0.154;2023-02-18T00:41:16;5.00;;;2.80;;
70406;SDS011;57821;52.202;0.154;2023-02-18T00:43:43;4.47;;;2.58;;
70406;SDS011;57821;52.202;0.154;2023-02-18T00:46:09;4.57;;;2.50;;
70406;SDS011;57821;52.202;0.154;2023-02-18T00:48:36;4.05;;;1.98;;
70406;SDS011;57821;52.202;0.154;2023-02-18T00:51:04;3.58;;;1.77;;
70406;SDS011;57821;52.202;0.154;2023-02-18T00:53:32;3.78;;;1.75;;
70406;SDS011;57821;52.202;0.154;2023-02-18T00:55:59;3.88;;;1.60;;
70406;SDS011;57821;52.202;0.154;2023-02-18T00:58:26;4.00;;;1.60;;
70406;SDS011;57821;52.202;0.154;2023-02-18T01:00:53;3.50;;;1.50;;
70406;SDS011;57821;52.202;0.154;2023-02-18T01:03:20;3.22;;;1.35;;
70406;SDS011;57821;52.202;0.154;2023-02-18T01:05:47;2.90;;;1.08;;
70406;SDS011;57821;52.202;0.154;2023-02-18T01:08:15;2.78;;;0.80;;
70406;SDS011;57821;52.202;0.154;2023-02-18T01:10:44;2.22;;;0.60;;
70406;SDS011;57821;52.202;0.154;2023-02-18T01:13:12;2.08;;;0.70;;
70406;SDS011;57821;52.202;0.154;2023-02-18T01:15:40;1.83;;;0.60;;
70406;SDS011;57821;52.202;0.154;2023-02-18T01:18:09;1.48;;;0.50;;
70406;SDS011;57821;52.202;0.154;2023-02-18T01:20:36;1.88;;;0.50;;
70406;SDS011;57821;52.202;0.154;2023-02-18T01:23:06;2.65;;;0.70;;
70406;SDS011;57821;52.202;0.154;2023-02-18T01:25:32;1.95;;;0.50;;
70406;SDS011;57821;52.202;0.154;2023-02-18T01:28:00;4.53;;;0.50;;
70406;SDS011;57821;52.202;0.154;2023-02-18T01:30:27;1.02;;;0.40;;
70406;SDS011;57821;52.202;0.154;2023-02-18T01:32:54;2.08;;;0.60;;
70406;SDS011;57821;52.202;0.154;2023-02-18T01:35:22;2.40;;;0.70;;
70406;SDS011;57821;52.202;0.154;2023-02-18T01:37:49;2.75;;;0.63;;
70406;SDS011;57821;52.202;0.154;2023-02-18T01:40:17;1.67;;;0.60;;
70406;SDS011;57821;52.202;0.154;2023-02-18T01:42:46;2.08;;;0.50;;
70406;SDS011;57821;52.202;0.154;2023-02-18T01:48:20;2.40;;;0.70;;
70406;SDS011;57821;52.202;0.154;2023-02-18T01:51:08;1.98;;;0.60;;
70406;SDS011;57821;52.202;0.154;2023-02-18T01:54:23;2.33;;;0.60;;
70406;SDS011;57821;52.202;0.154;2023-02-18T01:57:02;2.38;;;0.60;;
70406;SDS011;57821;52.202;0.154;2023-02-18T01:59:33;1.13;;;0.50;;
70406;SDS011;57821;52.202;0.154;2023-02-18T02:02:05;2.28;;;0.60;;
70406;SDS011;57821;52.202;0.154;2023-02-18T02:04:33;4.22;;;0.50;;
70406;SDS011;57821;52.202;0.154;2023-02-18T02:07:01;2.33;;;0.50;;
70406;SDS011;57821;52.202;0.154;2023-02-18T02:09:28;1.85;;;0.50;;
70406;SDS011;57821;52.202;0.154;2023-02-18T02:21:32;2.00;;;0.47;;
70406;SDS011;57821;52.202;0.154;2023-02-18T02:35:08;5.10;;;0.52;;
70406;SDS011;57821;52.202;0.154;2023-02-18T02:38:00;4.28;;;0.50;;
70406;SDS011;57821;52.202;0.154;2023-02-18T02:40:45;2.90;;;0.60;;
70406;SDS011;57821;52.202;0.154;2023-02-18T02:43:42;3.75;;;0.80;;
70406;SDS011;57821;52.202;0.154;2023-02-18T02:46:38;6.35;;;1.00;;
70406;SDS011;57821;52.202;0.154;2023-02-18T02:49:23;6.35;;;1.23;;
70406;SDS011;57821;52.202;0.154;2023-02-18T02:52:04;4.22;;;0.80;;
70406;SDS011;57821;52.202;0.154;2023-02-18T02:54:36;4.95;;;0.93;;
70406;SDS011;57821;52.202;0.154;2023-02-18T02:57:04;8.40;;;0.93;;
70406;SDS011;57821;52.202;0.154;2023-02-18T03:00:03;6.25;;;1.33;;
70406;SDS011;57821;52.202;0.154;2023-02-18T03:05:43;3.92;;;0.70;;
70406;SDS011;57821;52.202;0.154;2023-02-18T03:08:35;7.13;;;1.00;;
70406;SDS011;57821;52.202;0.154;2023-02-18T03:11:12;5.68;;;1.05;;
70406;SDS011;57821;52.202;0.154;2023-02-18T03:21:48;7.28;;;0.90;;
70406;SDS011;57821;52.202;0.154;2023-02-18T03:26:53;6.35;;;1.30;;
70406;SDS011;57821;52.202;0.154;2023-02-18T03:29:24;6.18;;;0.90;;
70406;SDS011;57821;52.202;0.154;2023-02-18T03:31:54;7.57;;;1.20;;
70406;SDS011;57821;52.202;0.154;2023-02-18T03:34:30;9.00;;;1.20;;
70406;SDS011;57821;52.202;0.154;2023-02-18T03:36:59;6.72;;;1.13;;
70406;SDS011;57821;52.202;0.154;2023-02-18T03:39:28;10.02;;;1.30;;
70406;SDS011;57821;52.202;0.154;2023-02-18T03:41:57;6.68;;;1.20;;
70406;SDS011;57821;52.202;0.154;2023-02-18T03:44:24;6.60;;;1.10;;
70406;SDS011;57821;52.202;0.154;2023-02-18T03:46:51;5.82;;;1.40;;
70406;SDS011;57821;52.202;0.154;2023-02-18T03:49:18;9.43;;;1.67;;
70406;SDS011;57821;52.202;0.154;2023-02-18T03:51:46;7.05;;;1.10;;
70406;SDS011;57821;52.202;0.154;2023-02-18T03:54:12;8.82;;;1.23;;
70406;SDS011;57821;52.202;0.154;2023-02-18T03:56:40;10.05;;;1.48;;
70406;SDS011;57821;52.202;0.154;2023-02-18T03:59:07;10.30;;;1.13;;
70406;SDS011;57821;52.202;0.154;2023-02-18T04:01:34;6.50;;;1.30;;
70406;SDS011;57821;52.202;0.154;2023-02-18T04:04:01;12.43;;;1.40;;
70406;SDS011;57821;52.202;0.154;2023-02-18T04:06:28;8.35;;;1.40;;
70406;SDS011;57821;52.202;0.154;2023-02-18T04:08:55;9.40;;;1.30;;
70406;SDS011;57821;52.202;0.154;2023-02-18T04:11:21;8.48;;;1.35;;
70406;SDS011;57821;52.202;0.154;2023-02-18T04:13:48;8.65;;;1.55;;
70406;SDS011;57821;52.202;0.154;2023-02-18T04:16:15;10.80;;;1.40;;
70406;SDS011;57821;52.202;0.154;2023-02-18T04:18:41;7.38;;;0.95;;
70406;SDS011;57821;52.202;0.154;2023-02-18T04:21:09;8.68;;;1.38;;
70406;SDS011;57821;52.202;0.154;2023-02-18T04:23:35;10.65;;;1.50;;
70406;SDS011;57821;52.202;0.154;2023-02-18T04:26:02;10.10;;;1.50;;
70406;SDS011;57821;52.202;0.154;2023-02-18T04:28:29;11.98;;;1.85;;
70406;SDS011;57821;52.202;0.154;2023-02-18T04:30:55;8.82;;;1.33;;
70406;SDS011;57821;52.202;0.154;2023-02-18T04:33:22;9.80;;;1.20;;
70406;SDS011;57821;52.202;0.154;2023-02-18T04:35:48;10.50;;;1.52;;
70406;SDS011;57821;52.202;0.154;2023-02-18T04:38:15;7.35;;;1.20;;
70406;SDS011;57821;52.202;0.154;2023-02-18T04:40:41;10.27;;;1.30;;
70406;SDS011;57821;52.202;0.154;2023-02-18T04:43:08;10.00;;;1.48;;
70406;SDS011;57821;52.202;0.154;2023-02-18T04:45:34;9.43;;;1.67;;
70406;SDS011;57821;52.202;0.154;2023-02-18T04:48:01;8.98;;;1.17;;
70406;SDS011;57821;52.202;0.154;2023-02-18T04:50:27;6.20;;;1.17;;
70406;SDS011;57821;52.202;0.154;2023-02-18T04:52:54;12.30;;;2.15;;
70406;SDS011;57821;52.202;0.154;2023-02-18T04:55:20;8.85;;;1.08;;
70406;SDS011;57821;52.202;0.154;2023-02-18T04:57:47;6.50;;;1.20;;
70406;SDS011;57821;52.202;0.154;2023-02-18T05:00:14;6.70;;;1.05;;
70406;SDS011;57821;52.202;0.154;2023-02-18T05:02:43;7.32;;;1.40;;
70406;SDS011;57821;52.202;0.154;2023-02-18T05:05:10;10.65;;;1.50;;
70406;SDS011;57821;52.202;0.154;2023-02-18T05:07:38;10.55;;;1.20;;
70406;SDS011;57821;52.202;0.154;2023-02-18T05:10:05;6.40;;;1.10;;
70406;SDS011;57821;52.202;0.154;2023-02-18T05:12:31;14.68;;;2.17;;
70406;SDS011;57821;52.202;0.154;2023-02-18T05:14:58;11.00;;;2.33;;
70406;SDS011;57821;52.202;0.154;2023-02-18T05:17:24;7.20;;;1.10;;
70406;SDS011;57821;52.202;0.154;2023-02-18T05:19:51;9.82;;;2.15;;
70406;SDS011;57821;52.202;0.154;2023-02-18T05:22:17;9.60;;;1.45;;
70406;SDS011;57821;52.202;0.154;2023-02-18T05:24:44;7.53;;;1.20;;
70406;SDS011;57821;52.202;0.154;2023-02-18T05:27:10;6.85;;;1.20;;
70406;SDS011;57821;52.202;0.154;2023-02-18T05:29:37;8.93;;;1.45;;
70406;SDS011;57821;52.202;0.154;2023-02-18T05:32:03;8.63;;;1.20;;
70406;SDS011;57821;52.202;0.154;2023-02-18T05:34:30;9.15;;;1.42;;
70406;SDS011;57821;52.202;0.154;2023-02-18T05:36:57;5.63;;;0.93;;
70406;SDS011;57821;52.202;0.154;2023-02-18T05:39:23;10.45;;;1.33;;
70406;SDS011;57821;52.202;0.154;2023-02-18T05:41:50;10.98;;;1.30;;
70406;SDS011;57821;52.202;0.154;2023-02-18T05:44:16;10.65;;;2.40;;
70406;SDS011;57821;52.202;0.154;2023-02-18T05:46:43;8.15;;;1.10;;
70406;SDS011;57821;52.202;0.154;2023-02-18T05:49:09;8.52;;;1.42;;
70406;SDS011;57821;52.202;0.154;2023-02-18T05:51:36;6.63;;;1.60;;
70406;SDS011;57821;52.202;0.154;2023-02-18T05:54:03;9.02;;;1.88;;
70406;SDS011;57821;52.202;0.154;2023-02-18T05:56:29;7.53;;;1.10;;
70406;SDS011;57821;52.202;0.154;2023-02-18T05:58:56;8.98;;;1.35;;
70406;SDS011;57821;52.202;0.154;2023-02-18T06:01:23;7.70;;;1.33;;
70406;SDS011;57821;52.202;0.154;2023-02-18T06:03:49;10.00;;;1.25;;
70406;SDS011;57821;52.202;0.154;2023-02-18T06:06:16;6.40;;;0.93;;
70406;SDS011;57821;52.202;0.154;2023-02-18T06:08:42;5.00;;;1.20;;
70406;SDS011;57821;52.202;0.154;2023-02-18T06:11:09;8.52;;;1.20;;
70406;SDS011;57821;52.202;0.154;2023-02-18T06:13:35;6.70;;;1.15;;
70406;SDS011;57821;52.202;0.154;2023-02-18T06:16:02;7.22;;;1.30;;
70406;SDS011;57821;52.202;0.154;2023-02-18T06:18:28;8.00;;;1.15;;
70406;SDS011;57821;52.202;0.154;2023-02-18T06:20:55;6.47;;;1.40;;
70406;SDS011;57821;52.202;0.154;2023-02-18T06:23:21;5.70;;;1.02;;
70406;SDS011;57821;52.202;0.154;2023-02-18T06:25:48;4.65;;;1.05;;
70406;SDS011;57821;52.202;0.154;2023-02-18T06:28:15;9.15;;;1.30;;
70406;SDS011;57821;52.202;0.154;2023-02-18T06:30:43;10.88;;;1.38;;
70406;SDS011;57821;52.202;0.154;2023-02-18T06:33:10;6.82;;;1.48;;
70406;SDS011;57821;52.202;0.154;2023-02-18T06:35:37;7.68;;;2.35;;
70406;SDS011;57821;52.202;0.154;2023-02-18T06:38:04;7.70;;;1.10;;
70406;SDS011;57821;52.202;0.154;2023-02-18T06:40:30;6.53;;;0.80;;
70406;SDS011;57821;52.202;0.154;2023-02-18T06:42:57;7.78;;;1.08;;
70406;SDS011;57821;52.202;0.154;2023-02-18T06:45:23;6.82;;;1.10;;
70406;SDS011;57821;52.202;0.154;2023-02-18T06:47:50;14.05;;;1.95;;
70406;SDS011;57821;52.202;0.154;2023-02-18T06:50:16;9.38;;;1.30;;
70406;SDS011;57821;52.202;0.154;2023-02-18T06:52:43;7.82;;;1.48;;
70406;SDS011;57821;52.202;0.154;2023-02-18T06:55:10;4.00;;;0.85;;
70406;SDS011;57821;52.202;0.154;2023-02-18T06:57:36;7.65;;;1.15;;
70406;SDS011;57821;52.202;0.154;2023-02-18T07:00:04;9.68;;;1.20;;
70406;SDS011;57821;52.202;0.154;2023-02-18T07:02:31;6.88;;;1.25;;
70406;SDS011;57821;52.202;0.154;2023-02-18T07:04:57;7.15;;;1.30;;
70406;SDS011;57821;52.202;0.154;2023-02-18T07:07:24;6.00;;;1.27;;
70406;SDS011;57821;52.202;0.154;2023-02-18T07:09:50;7.93;;;1.63;;
70406;SDS011;57821;52.202;0.154;2023-02-18T07:12:17;4.93;;;1.42;;
70406;SDS011;57821;52.202;0.154;2023-02-18T07:14:43;8.93;;;1.42;;
70406;SDS011;57821;52.202;0.154;2023-02-18T07:17:10;9.90;;;1.75;;
70406;SDS011;57821;52.202;0.154;2023-02-18T07:19:36;8.45;;;1.58;;
70406;SDS011;57821;52.202;0.154;2023-02-18T07:22:03;7.93;;;1.38;;
70406;SDS011;57821;52.202;0.154;2023-02-18T07:24:29;6.47;;;1.20;;
70406;SDS011;57821;52.202;0.154;2023-02-18T07:26:56;7.85;;;1.92;;
70406;SDS011;57821;52.202;0.154;2023-02-18T07:29:22;8.95;;;1.98;;
70406;SDS011;57821;52.202;0.154;2023-02-18T07:31:52;7.47;;;1.42;;
70406;SDS011;57821;52.202;0.154;2023-02-18T07:34:37;8.40;;;1.13;;
70406;SDS011;57821;52.202;0.154;2023-02-18T07:37:24;7.97;;;1.20;;
70406;SDS011;57821;52.202;0.154;2023-02-18T07:40:12;9.05;;;1.70;;
70406;SDS011;57821;52.202;0.154;2023-02-18T07:43:00;8.05;;;1.48;;
70406;SDS011;57821;52.202;0.154;2023-02-18T07:45:48;6.97;;;1.30;;
70406;SDS011;57821;52.202;0.154;2023-02-18T07:48:34;11.35;;;1.55;;
70406;SDS011;57821;52.202;0.154;2023-02-18T07:51:21;7.82;;;1.10;;
70406;SDS011;57821;52.202;0.154;2023-02-18T07:54:08;6.15;;;1.63;;
70406;SDS011;57821;52.202;0.154;2023-02-18T07:56:55;9.40;;;1.20;;
70406;SDS011;57821;52.202;0.154;2023-02-18T07:59:42;8.75;;;1.50;;
70406;SDS011;57821;52.202;0.154;2023-02-18T08:02:29;10.13;;;1.65;;
70406;SDS011;57821;52.202;0.154;2023-02-18T08:05:16;7.60;;;1.35;;
70406;SDS011;57821;52.202;0.154;2023-02-18T08:08:03;4.30;;;0.85;;
70406;SDS011;57821;52.202;0.154;2023-02-18T08:10:50;8.57;;;1.40;;
70406;SDS011;57821;52.202;0.154;2023-02-18T08:13:38;8.57;;;1.25;;
70406;SDS011;57821;52.202;0.154;2023-02-18T08:16:25;7.63;;;1.58;;
70406;SDS011;57821;52.202;0.154;2023-02-18T08:19:12;7.57;;;1.40;;
70406;SDS011;57821;52.202;0.154;2023-02-18T08:22:02;7.28;;;1.13;;
70406;SDS011;57821;52.202;0.154;2023-02-18T08:24:49;9.30;;;1.40;;
70406;SDS011;57821;52.202;0.154;2023-02-18T08:27:36;6.72;;;0.90;;
70406;SDS011;57821;52.202;0.154;2023-02-18T08:30:23;6.15;;;1.10;;
70406;SDS011;57821;52.202;0.154;2023-02-18T08:33:10;7.85;;;1.70;;
70406;SDS011;57821;52.202;0.154;2023-02-18T08:35:57;7.22;;;1.40;;
70406;SDS011;57821;52.202;0.154;2023-02-18T08:38:44;4.85;;;1.40;;
70406;SDS011;57821;52.202;0.154;2023-02-18T08:41:31;7.28;;;1.30;;
70406;SDS011;57821;52.202;0.154;2023-02-18T08:44:18;5.57;;;0.95;;
70406;SDS011;57821;52.202;0.154;2023-02-18T08:46:44;6.28;;;1.15;;
70406;SDS011;57821;52.202;0.154;2023-02-18T08:49:11;6.90;;;1.38;;
70406;SDS011;57821;52.202;0.154;2023-02-18T08:51:37;6.68;;;1.23;;
70406;SDS011;57821;52.202;0.154;2023-02-18T08:54:04;8.85;;;1.27;;
70406;SDS011;57821;52.202;0.154;2023-02-18T08:56:30;5.00;;;0.90;;
70406;SDS011;57821;52.202;0.154;2023-02-18T08:58:57;5.80;;;1.40;;
70406;SDS011;57821;52.202;0.154;2023-02-18T09:01:23;8.43;;;1.50;;
70406;SDS011;57821;52.202;0.154;2023-02-18T09:03:50;7.18;;;1.40;;
70406;SDS011;57821;52.202;0.154;2023-02-18T09:06:38;7.55;;;1.80;;
70406;SDS011;57821;52.202;0.154;2023-02-18T09:09:25;5.85;;;1.30;;
70406;SDS011;57821;52.202;0.154;2023-02-18T09:12:12;10.80;;;1.95;;
70406;SDS011;57821;52.202;0.154;2023-02-18T09:14:38;5.88;;;1.40;;
70406;SDS011;57821;52.202;0.154;2023-02-18T09:17:05;5.15;;;1.45;;
70406;SDS011;57821;52.202;0.154;2023-02-18T09:19:32;6.25;;;1.60;;
70406;SDS011;57821;52.202;0.154;2023-02-18T09:21:58;11.10;;;1.60;;
70406;SDS011;57821;52.202;0.154;2023-02-18T09:24:26;4.63;;;1.10;;
70406;SDS011;57821;52.202;0.154;2023-02-18T09:26:52;6.05;;;1.30;;
70406;SDS011;57821;52.202;0.154;2023-02-18T09:29:19;5.70;;;1.42;;
70406;SDS011;57821;52.202;0.154;2023-02-18T09:31:45;7.10;;;1.58;;
70406;SDS011;57821;52.202;0.154;2023-02-18T09:34:12;4.28;;;1.10;;
70406;SDS011;57821;52.202;0.154;2023-02-18T09:36:38;5.18;;;1.10;;
70406;SDS011;57821;52.202;0.154;2023-02-18T09:39:05;5.40;;;1.45;;
70406;SDS011;57821;52.202;0.154;2023-02-18T09:41:41;6.20;;;1.20;;
70406;SDS011;57821;52.202;0.154;2023-02-18T09:44:12;5.57;;;1.63;;
70406;SDS011;57821;52.202;0.154;2023-02-18T09:46:57;6.15;;;1.63;;
70406;SDS011;57821;52.202;0.154;2023-02-18T09:49:28;5.75;;;1.15;;
70406;SDS011;57821;52.202;0.154;2023-02-18T09:51:59;3.90;;;1.05;;
70406;SDS011;57821;52.202;0.154;2023-02-18T09:54:31;5.93;;;1.40;;
70406;SDS011;57821;52.202;0.154;2023-02-18T09:56:57;6.38;;;1.30;;
70406;SDS011;57821;52.202;0.154;2023-02-18T09:59:24;5.63;;;1.58;;
70406;SDS011;57821;52.202;0.154;2023-02-18T10:01:52;5.50;;;1.40;;
70406;SDS011;57821;52.202;0.154;2023-02-18T10:04:30;6.30;;;1.15;;
70406;SDS011;57821;52.202;0.154;2023-02-18T10:07:02;9.73;;;1.13;;
70406;SDS011;57821;52.202;0.154;2023-02-18T10:09:33;3.90;;;1.00;;
70406;SDS011;57821;52.202;0.154;2023-02-18T10:12:09;5.78;;;1.75;;
70406;SDS011;57821;52.202;0.154;2023-02-18T10:14:40;7.88;;;1.60;;
70406;SDS011;57821;52.202;0.154;2023-02-18T10:17:09;5.95;;;1.17;;
70406;SDS011;57821;52.202;0.154;2023-02-18T10:19:41;5.20;;;0.98;;
70406;SDS011;57821;52.202;0.154;2023-02-18T10:22:11;5.40;;;1.83;;
70406;SDS011;57821;52.202;0.154;2023-02-18T10:24:45;6.25;;;2.47;;
70406;SDS011;57821;52.202;0.154;2023-02-18T10:27:17;7.30;;;1.38;;
70406;SDS011;57821;52.202;0.154;2023-02-18T10:29:49;4.25;;;1.30;;
70406;SDS011;57821;52.202;0.154;2023-02-18T10:32:23;5.00;;;1.13;;
70406;SDS011;57821;52.202;0.154;2023-02-18T10:35:14;7.53;;;1.55;;
70406;SDS011;57821;52.202;0.154;2023-02-18T10:40:45;6.15;;;2.22;;
70406;SDS011;57821;52.202;0.154;2023-02-18T10:46:08;5.28;;;1.30;;
70406;SDS011;57821;52.202;0.154;2023-02-18T10:49:01;4.45;;;1.35;;
70406;SDS011;57821;52.202;0.154;2023-02-18T10:51:41;3.83;;;0.90;;
70406;SDS011;57821;52.202;0.154;2023-02-18T10:54:13;3.05;;;0.70;;
70406;SDS011;57821;52.202;0.154;2023-02-18T10:56:41;3.88;;;1.00;;
70406;SDS011;57821;52.202;0.154;2023-02-18T10:59:32;6.65;;;1.48;;
70406;SDS011;57821;52.202;0.154;2023-02-18T11:02:00;3.58;;;0.82;;
70406;SDS011;57821;52.202;0.154;2023-02-18T11:04:39;3.90;;;1.13;;
70406;SDS011;57821;52.202;0.154;2023-02-18T11:07:25;7.68;;;1.40;;
70406;SDS011;57821;52.202;0.154;2023-02-18T11:09:57;4.57;;;1.20;;
70406;SDS011;57821;52.202;0.154;2023-02-18T11:12:26;4.85;;;1.33;;
70406;SDS011;57821;52.202;0.154;2023-02-18T11:15:18;5.78;;;1.20;;
70406;SDS011;57821;52.202;0.154;2023-02-18T11:17:48;3.97;;;1.00;;
70406;SDS011;57821;52.202;0.154;2023-02-18T11:22:46;4.72;;;1.00;;
70406;SDS011;57821;52.202;0.154;2023-02-18T11:25:18;4.35;;;0.95;;
70406;SDS011;57821;52.202;0.154;2023-02-18T11:30:39;7.75;;;0.75;;
70406;SDS011;57821;52.202;0.154;2023-02-18T11:33:09;4.03;;;1.00;;
70406;SDS011;57821;52.202;0.154;2023-02-18T11:35:47;3.78;;;0.95;;
70406;SDS011;57821;52.202;0.154;2023-02-18T11:38:23;2.38;;;0.65;;
70406;SDS011;57821;52.202;0.154;2023-02-18T11:40:54;3.63;;;0.80;;
70406;SDS011;57821;52.202;0.154;2023-02-18T11:43:26;3.85;;;0.80;;
70406;SDS011;57821;52.202;0.154;2023-02-18T11:46:09;4.05;;;0.57;;
70406;SDS011;57821;52.202;0.154;2023-02-18T11:48:40;2.55;;;0.73;;
70406;SDS011;57821;52.202;0.154;2023-02-18T11:51:49;2.88;;;0.68;;
70406;SDS011;57821;52.202;0.154;2023-02-18T11:54:04;3.15;;;0.68;;
70406;SDS011;57821;52.202;0.154;2023-02-18T11:56:53;2.30;;;0.60;;
70406;SDS011;57821;52.202;0.154;2023-02-18T11:59:22;4.03;;;0.63;;
70406;SDS011;57821;52.202;0.154;2023-02-18T12:01:50;3.72;;;1.17;;
70406;SDS011;57821;52.202;0.154;2023-02-18T12:04:32;2.22;;;0.52;;
70406;SDS011;57821;52.202;0.154;2023-02-18T12:09:44;2.50;;;0.52;;
70406;SDS011;57821;52.202;0.154;2023-02-18T12:12:27;3.00;;;0.75;;
70406;SDS011;57821;52.202;0.154;2023-02-18T12:14:57;3.67;;;0.80;;
70406;SDS011;57821;52.202;0.154;2023-02-18T12:28:52;3.17;;;0.70;;
70406;SDS011;57821;52.202;0.154;2023-02-18T12:34:58;3.40;;;0.60;;
70406;SDS011;57821;52.202;0.154;2023-02-18T12:51:06;0.77;;;0.20;;
70406;SDS011;57821;52.202;0.154;2023-02-18T13:06:41;2.30;;;0.82;;
70406;SDS011;57821;52.202;0.154;2023-02-18T13:09:54;2.47;;;0.60;;
70406;SDS011;57821;52.202;0.154;2023-02-18T13:12:50;2.80;;;0.60;;
70406;SDS011;57821;52.202;0.154;2023-02-18T13:15:43;1.30;;;0.38;;
70406;SDS011;57821;52.202;0.154;2023-02-18T13:18:36;2.20;;;0.47;;
70406;SDS011;57821;52.202;0.154;2023-02-18T13:21:27;3.45;;;0.60;;
70406;SDS011;57821;52.202;0.154;2023-02-18T13:24:38;3.78;;;1.00;;
70406;SDS011;57821;52.202;0.154;2023-02-18T13:30:51;2.47;;;0.63;;
70406;SDS011;57821;52.202;0.154;2023-02-18T13:33:45;7.07;;;0.80;;
70406;SDS011;57821;52.202;0.154;2023-02-18T13:40:01;2.47;;;0.60;;
70406;SDS011;57821;52.202;0.154;2023-02-18T13:42:50;3.42;;;0.70;;
70406;SDS011;57821;52.202;0.154;2023-02-18T13:45:38;1.98;;;0.50;;
70406;SDS011;57821;52.202;0.154;2023-02-18T13:48:25;1.63;;;0.32;;
70406;SDS011;57821;52.202;0.154;2023-02-18T13:57:06;2.63;;;0.68;;
70406;SDS011;57821;52.202;0.154;2023-02-18T14:00:03;4.53;;;1.00;;
70406;SDS011;57821;52.202;0.154;2023-02-18T14:02:59;5.77;;;1.43;;
70406;SDS011;57821;52.202;0.154;2023-02-18T14:05:48;3.17;;;0.80;;
70406;SDS011;57821;52.202;0.154;2023-02-18T14:08:35;3.42;;;1.13;;
70406;SDS011;57821;52.202;0.154;2023-02-18T14:11:30;4.40;;;1.15;;
70406;SDS011;57821;52.202;0.154;2023-02-18T14:22:52;5.13;;;1.60;;
70406;SDS011;57821;52.202;0.154;2023-02-18T14:25:39;4.90;;;1.60;;
70406;SDS011;57821;52.202;0.154;2023-02-18T14:37:55;4.93;;;1.90;;
70406;SDS011;57821;52.202;0.154;2023-02-18T14:41:08;7.47;;;2.10;;
70406;SDS011;57821;52.202;0.154;2023-02-18T14:50:00;6.70;;;2.42;;
70406;SDS011;57821;52.202;0.154;2023-02-18T14:52:52;6.35;;;2.33;;
70406;SDS011;57821;52.202;0.154;2023-02-18T14:55:44;7.22;;;2.83;;
70406;SDS011;57821;52.202;0.154;2023-02-18T14:58:38;6.20;;;2.80;;
70406;SDS011;57821;52.202;0.154;2023-02-18T15:01:29;31.58;;;4.25;;
70406;SDS011;57821;52.202;0.154;2023-02-18T15:04:19;5.75;;;2.10;;
70406;SDS011;57821;52.202;0.154;2023-02-18T15:07:08;7.68;;;2.60;;
70406;SDS011;57821;52.202;0.154;2023-02-18T15:09:55;5.78;;;2.97;;
70406;SDS011;57821;52.202;0.154;2023-02-18T15:12:42;9.48;;;2.85;;
70406;SDS011;57821;52.202;0.154;2023-02-18T15:15:29;6.07;;;2.70;;
70406;SDS011;57821;52.202;0.154;2023-02-18T15:18:21;7.25;;;3.88;;
70406;SDS011;57821;52.202;0.154;2023-02-18T15:21:18;9.95;;;3.90;;
70406;SDS011;57821;52.202;0.154;2023-02-18T15:24:08;10.63;;;4.22;;
70406;SDS011;57821;52.202;0.154;2023-02-18T15:27:10;10.43;;;4.30;;
70406;SDS011;57821;52.202;0.154;2023-02-18T15:30:05;6.53;;;2.95;;
70406;SDS011;57821;52.202;0.154;2023-02-18T15:33:12;12.13;;;4.20;;
70406;SDS011;57821;52.202;0.154;2023-02-18T15:36:03;11.10;;;4.80;;
70406;SDS011;57821;52.202;0.154;2023-02-18T15:38:52;8.40;;;3.35;;
70406;SDS011;57821;52.202;0.154;2023-02-18T15:41:39;9.40;;;3.90;;
70406;SDS011;57821;52.202;0.154;2023-02-18T15:44:26;10.73;;;3.30;;
70406;SDS011;57821;52.202;0.154;2023-02-18T15:47:15;7.82;;;3.25;;
70406;SDS011;57821;52.202;0.154;2023-02-18T15:50:04;8.30;;;4.00;;
70406;SDS011;57821;52.202;0.154;2023-02-18T15:52:52;8.32;;;3.28;;
70406;SDS011;57821;52.202;0.154;2023-02-18T15:55:44;7.97;;;2.72;;
70406;SDS011;57821;52.202;0.154;2023-02-18T15:58:33;8.10;;;3.08;;
70406;SDS011;57821;52.202;0.154;2023-02-18T16:01:26;6.63;;;2.50;;
70406;SDS011;57821;52.202;0.154;2023-02-18T16:04:15;7.10;;;2.50;;
70406;SDS011;57821;52.202;0.154;2023-02-18T16:07:04;9.25;;;2.65;;
70406;SDS011;57821;52.202;0.154;2023-02-18T16:10:18;9.82;;;3.20;;
70406;SDS011;57821;52.202;0.154;2023-02-18T16:13:10;9.07;;;2.42;;
70406;SDS011;57821;52.202;0.154;2023-02-18T16:15:59;8.50;;;2.17;;
70406;SDS011;57821;52.202;0.154;2023-02-18T16:18:47;6.63;;;2.25;;
70406;SDS011;57821;52.202;0.154;2023-02-18T16:21:43;7.40;;;2.03;;
70406;SDS011;57821;52.202;0.154;2023-02-18T16:24:30;6.35;;;1.98;;
70406;SDS011;57821;52.202;0.154;2023-02-18T16:27:35;6.90;;;2.20;;
70406;SDS011;57821;52.202;0.154;2023-02-18T16:30:27;4.93;;;1.67;;
70406;SDS011;57821;52.202;0.154;2023-02-18T16:33:16;5.30;;;2.08;;
70406;SDS011;57821;52.202;0.154;2023-02-18T16:36:03;6.38;;;1.90;;
70406;SDS011;57821;52.202;0.154;2023-02-18T16:38:50;6.30;;;2.05;;
70406;SDS011;57821;52.202;0.154;2023-02-18T16:41:37;7.57;;;2.20;;
70406;SDS011;57821;52.202;0.154;2023-02-18T16:44:23;5.57;;;1.60;;
70406;SDS011;57821;52.202;0.154;2023-02-18T16:47:11;4.60;;;1.67;;
70406;SDS011;57821;52.202;0.154;2023-02-18T16:50:01;5.72;;;1.48;;
70406;SDS011;57821;52.202;0.154;2023-02-18T16:52:28;4.25;;;1.10;;
70406;SDS011;57821;52.202;0.154;2023-02-18T16:54:55;4.68;;;1.40;;
70406;SDS011;57821;52.202;0.154;2023-02-18T16:57:21;5.30;;;1.73;;
70406;SDS011;57821;52.202;0.154;2023-02-18T16:59:48;5.55;;;1.50;;
70406;SDS011;57821;52.202;0.154;2023-02-18T17:02:16;4.65;;;1.80;;
70406;SDS011;57821;52.202;0.154;2023-02-18T17:04:45;4.38;;;1.60;;
70406;SDS011;57821;52.202;0.154;2023-02-18T17:07:12;4.47;;;1.45;;
70406;SDS011;57821;52.202;0.154;2023-02-18T17:09:38;5.07;;;1.27;;
70406;SDS011;57821;52.202;0.154;2023-02-18T17:12:05;4.18;;;1.35;;
70406;SDS011;57821;52.202;0.154;2023-02-18T17:14:32;5.70;;;1.30;;
70406;SDS011;57821;52.202;0.154;2023-02-18T17:16:58;5.38;;;1.10;;
70406;SDS011;57821;52.202;0.154;2023-02-18T17:19:25;4.55;;;1.30;;
70406;SDS011;57821;52.202;0.154;2023-02-18T17:21:51;4.70;;;1.38;;
70406;SDS011;57821;52.202;0.154;2023-02-18T17:24:18;5.25;;;1.20;;
70406;SDS011;57821;52.202;0.154;2023-02-18T17:26:44;6.05;;;1.60;;
70406;SDS011;57821;52.202;0.154;2023-02-18T17:29:11;5.13;;;1.92;;
70406;SDS011;57821;52.202;0.154;2023-02-18T17:31:38;4.95;;;1.40;;
70406;SDS011;57821;52.202;0.154;2023-02-18T17:34:07;5.13;;;1.70;;
70406;SDS011;57821;52.202;0.154;2023-02-18T17:36:37;3.30;;;1.00;;
70406;SDS011;57821;52.202;0.154;2023-02-18T17:39:05;4.78;;;1.33;;
70406;SDS011;57821;52.202;0.154;2023-02-18T17:41:38;4.13;;;1.17;;
70406;SDS011;57821;52.202;0.154;2023-02-18T17:44:17;5.60;;;1.80;;
70406;SDS011;57821;52.202;0.154;2023-02-18T17:46:45;7.05;;;2.55;;